Time;durP1;ratioP1;P1;durP2;ratioP2;P2;SDS_P1;SDS_P2;PMS_P1;PMS_P2;Temp;Humidity;BMP_temperature;BMP_pressure;BME280_temperature;BME280_humidity;BME280_pressure;Samples;Min_cycle;Max_cycle;Signal;HPM_P1;HPM_P2
2023/07/10 00:01:19;;;;;;;18.48;12.95;;;19.00;91.20;;;;;;5073373;28;20041;-80
2023/07/10 00:03:45;;;;;;;19.65;13.75;;;19.00;91.20;;;;;;5056981;28;20044;-81
2023/07/10 00:06:13;;;;;;;16.60;14.15;;;19.00;91.10;;;;;;5073572;28;20488;-81
2023/07/10 00:08:40;;;;;;;17.90;13.88;;;19.00;91.20;;;;;;5056866;28;20396;-82
2023/07/10 00:11:17;;;;;;;17.30;13.15;;;19.00;91.30;;;;;;5056610;28;20233;-81
2023/07/10 00:13:44;;;;;;;22.25;15.48;;;19.00;91.30;;;;;;5073389;28;20047;-81
2023/07/10 00:16:16;;;;;;;17.52;14.10;;;19.00;91.30;;;;;;5072933;28;20404;-80
2023/07/10 00:18:42;;;;;;;20.27;15.32;;;19.00;91.50;;;;;;5073255;28;20468;-80
2023/07/10 00:21:08;;;;;;;20.45;14.23;;;19.00;91.50;;;;;;5073189;28;20037;-81
2023/07/10 00:23:34;;;;;;;17.08;13.85;;;19.00;91.60;;;;;;5072781;28;20067;-79
2023/07/10 00:26:00;;;;;;;15.77;11.55;;;19.00;91.60;;;;;;5039578;28;20036;-80
2023/07/10 00:28:26;;;;;;;15.35;10.30;;;19.00;91.70;;;;;;5056155;28;20127;-81
2023/07/10 00:30:52;;;;;;;15.30;12.43;;;19.00;91.60;;;;;;5023086;28;20127;-79
2023/07/10 00:33:19;;;;;;;16.13;12.23;;;19.00;91.40;;;;;;5039166;28;20032;-81
2023/07/10 00:35:46;;;;;;;20.65;15.32;;;19.00;91.40;;;;;;5072701;28;20041;-80
2023/07/10 00:38:16;;;;;;;15.00;13.45;;;19.00;91.40;;;;;;5055872;28;20127;-80
2023/07/10 00:40:45;;;;;;;18.73;13.32;;;19.00;91.40;;;;;;5055860;28;21110;-80
2023/07/10 00:43:25;;;;;;;17.65;14.55;;;19.00;91.40;;;;;;5039960;28;20087;-82
2023/07/10 00:45:52;;;;;;;16.38;13.23;;;18.90;91.50;;;;;;5072376;28;20076;-82
2023/07/10 00:48:56;;;;;;;17.98;14.07;;;19.00;91.50;;;;;;5039439;28;20083;-79
2023/07/10 00:51:31;;;;;;;17.00;12.63;;;18.90;91.50;;;;;;5038164;28;20044;-80
2023/07/10 00:53:57;;;;;;;17.50;13.70;;;19.00;91.50;;;;;;5052706;28;20064;-80
2023/07/10 00:56:28;;;;;;;15.38;12.25;;;18.90;91.50;;;;;;5072335;28;20500;-81
2023/07/10 00:58:53;;;;;;;14.07;12.07;;;18.90;91.40;;;;;;5072287;28;20047;-82
2023/07/10 01:01:23;;;;;;;20.70;17.67;;;18.90;91.50;;;;;;5055456;28;20040;-80
2023/07/10 01:03:51;;;;;;;18.67;16.67;;;18.90;91.50;;;;;;5055497;28;20043;-81
2023/07/10 01:06:19;;;;;;;21.60;17.38;;;18.90;91.50;;;;;;5055413;28;20036;-80
2023/07/10 01:09:02;;;;;;;15.77;11.73;;;18.90;91.50;;;;;;5072028;28;20040;-81
2023/07/10 01:11:28;;;;;;;19.25;16.55;;;18.90;91.80;;;;;;5055472;28;20040;-80
2023/07/10 01:13:56;;;;;;;17.50;14.85;;;18.90;91.50;;;;;;5055305;28;20043;-80
2023/07/10 01:16:24;;;;;;;15.85;12.75;;;18.90;91.50;;;;;;5071839;28;20056;-80
2023/07/10 01:18:51;;;;;;;15.82;14.02;;;18.80;91.50;;;;;;5055290;28;20481;-80
2023/07/10 01:21:30;;;;;;;17.90;15.35;;;18.80;91.50;;;;;;5055328;28;20055;-81
2023/07/10 01:23:57;;;;;;;18.23;16.17;;;18.70;91.50;;;;;;5071731;28;20548;-80
2023/07/10 01:26:25;;;;;;;17.48;13.88;;;18.70;91.60;;;;;;5055084;28;20040;-80
2023/07/10 01:28:53;;;;;;;15.63;14.07;;;18.60;91.60;;;;;;5071809;28;20048;-80
2023/07/10 01:31:20;;;;;;;19.83;15.20;;;18.60;91.70;;;;;;5055364;28;20386;-80
2023/07/10 01:34:03;;;;;;;17.67;14.63;;;18.60;92.00;;;;;;5072013;28;20044;-81
2023/07/10 01:36:34;;;;;;;17.45;15.65;;;18.50;92.00;;;;;;5055079;28;20041;-80
2023/07/10 01:39:14;;;;;;;19.90;16.60;;;18.50;92.00;;;;;;5055067;28;20086;-80
2023/07/10 01:41:42;;;;;;;16.17;14.25;;;18.50;92.10;;;;;;5055029;28;20037;-80
2023/07/10 01:44:28;;;;;;;17.00;13.77;;;18.50;92.10;;;;;;5054999;28;20032;-80
2023/07/10 01:46:55;;;;;;;12.82;11.48;;;18.50;92.20;;;;;;5055380;28;20054;-80
2023/07/10 01:49:32;;;;;;;15.90;12.07;;;18.50;92.20;;;;;;5054972;28;20040;-81
2023/07/10 01:51:59;;;;;;;18.92;14.57;;;18.50;92.20;;;;;;5071796;28;20148;-80
2023/07/10 01:54:25;;;;;;;15.75;14.00;;;18.50;92.10;;;;;;5055458;28;20396;-80
2023/07/10 01:56:52;;;;;;;19.65;13.40;;;18.50;92.10;;;;;;5054896;28;20028;-80
2023/07/10 01:59:18;;;;;;;19.75;15.40;;;18.50;92.00;;;;;;5054986;28;20123;-80
2023/07/10 02:01:44;;;;;;;17.15;14.90;;;18.50;92.00;;;;;;5054938;28;20132;-80
2023/07/10 02:04:10;;;;;;;20.27;15.38;;;18.40;92.00;;;;;;5038390;28;20037;-81
2023/07/10 02:06:38;;;;;;;19.42;17.35;;;18.30;92.10;;;;;;5038696;28;20044;-81
2023/07/10 02:09:04;;;;;;;18.45;16.45;;;18.30;92.20;;;;;;5071690;28;20044;-80
2023/07/10 02:11:30;;;;;;;19.65;17.00;;;18.30;92.20;;;;;;5055142;28;20500;-80
2023/07/10 02:13:56;;;;;;;23.67;18.67;;;18.20;92.40;;;;;;5038428;28;20079;-80
2023/07/10 02:16:21;;;;;;;20.85;18.02;;;18.20;92.30;;;;;;5054811;28;20507;-81
2023/07/10 02:18:47;;;;;;;22.55;18.10;;;18.20;92.50;;;;;;5038204;28;20373;-81
2023/07/10 02:21:13;;;;;;;21.98;18.77;;;18.10;92.70;;;;;;5054985;28;20063;-80
2023/07/10 02:23:40;;;;;;;18.58;16.23;;;18.10;92.60;;;;;;5054644;28;20048;-81
2023/07/10 02:26:06;;;;;;;20.88;17.60;;;18.00;92.70;;;;;;5071531;28;20036;-79
2023/07/10 02:28:32;;;;;;;19.52;17.55;;;18.00;92.70;;;;;;5054602;28;20090;-81
2023/07/10 02:31:02;;;;;;;20.67;17.42;;;17.90;92.70;;;;;;5038082;28;20041;-81
2023/07/10 02:33:28;;;;;;;16.70;13.13;;;17.90;92.70;;;;;;5038783;28;20072;-80
2023/07/10 02:35:54;;;;;;;13.27;11.57;;;17.80;92.70;;;;;;5037876;28;20166;-80
2023/07/10 02:38:19;;;;;;;15.75;13.10;;;17.80;92.70;;;;;;5038172;28;20041;-80
2023/07/10 02:40:45;;;;;;;12.68;11.32;;;17.80;92.60;;;;;;5038291;28;20146;-82
2023/07/10 02:43:11;;;;;;;13.15;9.70;;;17.80;92.60;;;;;;5021622;28;20445;-82
2023/07/10 02:45:37;;;;;;;10.18;8.60;;;17.70;92.30;;;;;;5054538;28;20075;-82
2023/07/10 02:48:03;;;;;;;11.60;7.90;;;17.70;92.10;;;;;;5037818;28;20044;-80
2023/07/10 02:50:29;;;;;;;7.57;6.78;;;17.70;92.00;;;;;;5037927;28;20045;-81
2023/07/10 02:52:54;;;;;;;11.57;7.40;;;17.60;91.70;;;;;;5038084;28;20503;-81
2023/07/10 02:55:20;;;;;;;10.68;6.90;;;17.70;91.60;;;;;;5071021;28;20405;-81
2023/07/10 02:57:46;;;;;;;7.15;6.45;;;17.60;91.30;;;;;;5058198;28;20040;-82
2023/07/10 03:00:12;;;;;;;7.60;5.03;;;17.60;91.30;;;;;;5057911;28;20431;-80
2023/07/10 03:02:39;;;;;;;8.45;5.40;;;17.60;91.10;;;;;;5057949;28;20127;-81
2023/07/10 03:05:05;;;;;;;9.95;5.50;;;17.60;90.70;;;;;;5041357;28;20044;-80
2023/07/10 03:07:31;;;;;;;10.40;5.45;;;17.60;90.50;;;;;;5058020;28;20091;-81
2023/07/10 03:09:56;;;;;;;7.32;4.50;;;17.60;90.30;;;;;;5041183;28;20060;-80
2023/07/10 03:12:23;;;;;;;7.47;4.85;;;17.60;90.10;;;;;;5057693;28;20040;-81
2023/07/10 03:14:49;;;;;;;6.55;4.40;;;17.50;90.00;;;;;;5058276;28;20040;-80
2023/07/10 03:17:15;;;;;;;8.30;4.85;;;17.50;90.00;;;;;;5074029;28;20080;-81
2023/07/10 03:19:41;;;;;;;6.38;4.82;;;17.50;89.90;;;;;;5040894;28;20041;-81
2023/07/10 03:22:07;;;;;;;5.78;3.88;;;17.50;89.90;;;;;;5057111;28;20085;-80
2023/07/10 03:24:33;;;;;;;7.90;4.55;;;17.50;89.80;;;;;;5024233;28;20060;-80
2023/07/10 03:26:59;;;;;;;5.90;4.93;;;17.50;89.80;;;;;;5073705;28;20044;-80
2023/07/10 03:29:25;;;;;;;7.07;5.10;;;17.50;89.90;;;;;;5057081;28;20047;-80
2023/07/10 03:31:50;;;;;;;7.32;5.10;;;17.40;90.10;;;;;;5058742;28;20389;-80
2023/07/10 03:34:16;;;;;;;6.32;5.32;;;17.40;90.20;;;;;;5057461;28;20040;-79
2023/07/10 03:36:43;;;;;;;7.47;5.47;;;17.40;90.30;;;;;;5057552;28;20037;-81
2023/07/10 03:39:09;;;;;;;7.50;5.97;;;17.40;90.30;;;;;;5073794;28;20507;-80
2023/07/10 03:41:35;;;;;;;9.77;5.50;;;17.30;90.40;;;;;;5073994;28;20073;-80
2023/07/10 03:44:01;;;;;;;7.13;5.13;;;17.40;90.40;;;;;;5057005;28;20049;-80
2023/07/10 03:46:27;;;;;;;9.98;6.40;;;17.40;90.40;;;;;;5057604;28;20045;-80
2023/07/10 03:48:53;;;;;;;7.53;6.03;;;17.40;90.50;;;;;;5056943;28;20381;-80
2023/07/10 03:51:19;;;;;;;8.52;6.55;;;17.30;90.50;;;;;;5057249;28;20068;-79
2023/07/10 03:53:46;;;;;;;8.18;6.65;;;17.30;90.40;;;;;;5057102;28;20036;-79
2023/07/10 03:56:11;;;;;;;8.25;6.32;;;17.30;90.50;;;;;;5073476;28;20476;-80
2023/07/10 03:58:43;;;;;;;10.20;7.05;;;17.30;90.50;;;;;;5056760;28;20090;-80
2023/07/10 04:01:10;;;;;;;9.75;6.88;;;17.20;90.50;;;;;;5056800;28;20040;-80
2023/07/10 04:03:38;;;;;;;7.88;6.13;;;17.30;90.50;;;;;;5073322;28;20048;-81
2023/07/10 04:06:05;;;;;;;9.68;6.07;;;17.30;90.50;;;;;;5056939;28;20045;-80
2023/07/10 04:08:41;;;;;;;10.93;6.70;;;17.30;90.60;;;;;;5056720;28;20399;-80
2023/07/10 04:11:13;;;;;;;9.20;6.57;;;17.30;90.60;;;;;;5040413;28;20041;-81
2023/07/10 04:13:39;;;;;;;10.88;6.13;;;17.30;90.60;;;;;;5074273;28;20036;-80
2023/07/10 04:16:06;;;;;;;9.95;6.60;;;17.30;90.50;;;;;;5057423;28;20048;-80
2023/07/10 04:18:37;;;;;;;9.73;6.78;;;17.40;90.60;;;;;;5057567;28;20036;-80
2023/07/10 04:21:06;;;;;;;10.38;7.05;;;17.40;90.60;;;;;;5057961;28;20511;-81
2023/07/10 04:23:33;;;;;;;8.02;5.97;;;17.40;90.50;;;;;;5073883;28;20109;-81
2023/07/10 04:25:59;;;;;;;9.18;6.38;;;17.40;90.60;;;;;;5040432;28;20052;-82
2023/07/10 04:28:25;;;;;;;7.78;5.82;;;17.40;90.50;;;;;;5056090;28;20094;-83
2023/07/10 04:30:51;;;;;;;8.10;5.55;;;17.40;90.50;;;;;;5039604;28;20049;-80
2023/07/10 04:33:19;;;;;;;8.30;5.57;;;17.40;90.50;;;;;;5056625;28;20051;-80
2023/07/10 04:35:55;;;;;;;9.85;6.13;;;17.50;90.50;;;;;;5072960;28;20124;-80
2023/07/10 04:38:26;;;;;;;9.57;6.45;;;17.50;90.50;;;;;;5073621;28;20469;-80
2023/07/10 04:41:02;;;;;;;9.70;6.10;;;17.40;90.60;;;;;;5056299;28;20037;-80
2023/07/10 04:43:30;;;;;;;9.57;5.53;;;17.50;90.70;;;;;;5056512;28;20040;-80
2023/07/10 04:45:59;;;;;;;9.23;6.00;;;17.50;90.80;;;;;;5072929;28;20048;-80
2023/07/10 04:48:25;;;;;;;9.00;6.30;;;17.50;91.00;;;;;;5072673;28;20051;-80
2023/07/10 04:50:53;;;;;;;10.20;5.43;;;17.40;91.00;;;;;;5072739;28;20040;-80
2023/07/10 04:53:19;;;;;;;10.13;5.30;;;17.50;90.90;;;;;;5056400;28;20059;-80
2023/07/10 04:55:46;;;;;;;8.23;6.25;;;17.50;90.90;;;;;;5045586;28;20037;-79
2023/07/10 04:58:12;;;;;;;9.55;6.55;;;17.50;90.90;;;;;;5060162;28;20075;-81
2023/07/10 05:00:38;;;;;;;8.85;6.50;;;17.50;90.90;;;;;;5046627;28;20493;-81
2023/07/10 05:03:05;;;;;;;9.55;5.60;;;17.50;91.00;;;;;;5045108;28;20526;-80
2023/07/10 05:05:32;;;;;;;10.38;5.60;;;17.60;91.00;;;;;;5030045;28;20042;-80
2023/07/10 05:07:57;;;;;;;8.05;5.45;;;17.60;91.10;;;;;;5046827;28;20051;-80
2023/07/10 05:10:23;;;;;;;12.15;5.20;;;17.60;91.30;;;;;;5042678;28;20036;-80
2023/07/10 05:12:50;;;;;;;15.07;6.40;;;17.60;91.10;;;;;;5063476;28;20036;-79
2023/07/10 05:15:16;;;;;;;10.52;5.75;;;17.70;91.10;;;;;;5052186;28;20032;-80
2023/07/10 05:17:42;;;;;;;10.10;6.57;;;17.70;91.30;;;;;;5045557;28;20033;-80
2023/07/10 05:20:08;;;;;;;11.05;6.28;;;17.70;91.50;;;;;;5059468;28;20508;-80
2023/07/10 05:22:35;;;;;;;10.52;5.90;;;17.70;91.30;;;;;;5059177;28;20033;-81
2023/07/10 05:25:01;;;;;;;13.55;7.20;;;17.70;91.30;;;;;;5045431;28;20493;-79
2023/07/10 05:27:26;;;;;;;8.68;5.95;;;17.80;91.40;;;;;;5035623;28;20086;-79
2023/07/10 05:29:52;;;;;;;15.25;6.32;;;17.80;91.60;;;;;;5045089;28;20446;-80
2023/07/10 05:32:18;;;;;;;11.38;6.38;;;17.80;91.60;;;;;;5042923;28;20531;-78
2023/07/10 05:34:44;;;;;;;7.55;5.88;;;17.80;91.60;;;;;;5018647;28;20045;-77
2023/07/10 05:37:10;;;;;;;12.73;6.45;;;17.70;91.70;;;;;;5051654;28;20079;-77
2023/07/10 05:39:36;;;;;;;11.40;5.18;;;17.80;92.00;;;;;;5035371;28;20413;-78
2023/07/10 05:42:02;;;;;;;10.00;5.03;;;17.80;91.80;;;;;;5051941;28;20044;-78
2023/07/10 05:44:27;;;;;;;10.55;6.32;;;17.90;91.70;;;;;;5032857;28;20118;-77
2023/07/10 05:46:55;;;;;;;13.18;6.32;;;17.90;91.60;;;;;;5046933;28;20052;-78
2023/07/10 05:49:23;;;;;;;10.32;6.10;;;17.90;92.00;;;;;;5064185;28;20500;-79
2023/07/10 05:51:52;;;;;;;12.80;6.32;;;18.00;91.90;;;;;;5064825;28;20044;-77
2023/07/10 05:54:19;;;;;;;14.48;5.80;;;18.00;91.70;;;;;;5062546;28;20048;-78
2023/07/10 05:56:45;;;;;;;12.50;5.30;;;18.10;91.60;;;;;;5047864;28;20045;-77
2023/07/10 05:59:12;;;;;;;8.93;5.70;;;18.20;91.50;;;;;;5014776;28;20090;-77
2023/07/10 06:01:38;;;;;;;8.65;4.80;;;18.20;91.60;;;;;;5064390;28;20045;-78
2023/07/10 06:04:04;;;;;;;9.70;4.65;;;18.30;91.50;;;;;;5046367;28;20098;-78
2023/07/10 06:06:30;;;;;;;10.88;5.53;;;18.50;91.20;;;;;;5031264;28;20083;-78
2023/07/10 06:08:55;;;;;;;9.45;4.28;;;18.50;91.00;;;;;;5031329;28;20056;-78
2023/07/10 06:11:21;;;;;;;11.00;4.68;;;18.60;90.70;;;;;;5030587;28;20041;-77
2023/07/10 06:13:47;;;;;;;7.30;4.28;;;18.60;90.60;;;;;;5029478;28;20068;-78
2023/07/10 06:16:14;;;;;;;11.27;4.88;;;18.70;90.40;;;;;;5047108;28;20501;-78
2023/07/10 06:18:40;;;;;;;13.13;5.20;;;18.80;90.00;;;;;;5047412;28;20040;-78
2023/07/10 06:21:07;;;;;;;9.98;4.93;;;18.90;89.80;;;;;;5030290;28;20522;-77
2023/07/10 06:23:32;;;;;;;10.05;4.43;;;18.90;89.30;;;;;;5045698;28;20099;-76
2023/07/10 06:25:59;;;;;;;11.52;5.00;;;19.00;89.20;;;;;;5064462;28;20102;-77
2023/07/10 06:28:25;;;;;;;10.20;4.80;;;19.10;89.20;;;;;;5031032;28;20131;-77
2023/07/10 06:31:00;;;;;;;10.15;3.35;;;19.10;89.00;;;;;;5064684;28;20053;-79
2023/07/10 06:33:27;;;;;;;12.75;4.90;;;19.20;88.80;;;;;;5066597;28;20528;-77
2023/07/10 06:35:53;;;;;;;13.57;4.20;;;19.40;88.50;;;;;;5051474;28;20091;-78
2023/07/10 06:38:20;;;;;;;9.85;4.78;;;19.40;87.80;;;;;;5067631;28;20547;-79
2023/07/10 06:40:50;;;;;;;10.80;4.25;;;19.50;87.40;;;;;;5067615;28;20460;-76
2023/07/10 06:43:17;;;;;;;7.60;3.28;;;19.60;87.30;;;;;;5049098;28;20136;-79
2023/07/10 06:45:46;;;;;;;11.40;3.30;;;19.60;87.60;;;;;;5047225;28;20411;-76
2023/07/10 06:48:12;;;;;;;14.10;3.60;;;19.70;87.10;;;;;;5050393;28;20397;-78
2023/07/10 06:50:38;;;;;;;7.93;2.85;;;19.80;87.10;;;;;;5067117;28;20083;-75
2023/07/10 06:53:06;;;;;;;10.57;3.50;;;19.90;86.10;;;;;;5061475;28;20040;-79
2023/07/10 06:55:32;;;;;;;10.25;3.95;;;19.90;85.70;;;;;;5050111;28;20481;-78
2023/07/10 06:57:58;;;;;;;9.57;3.20;;;19.90;86.20;;;;;;5067544;28;20097;-78
2023/07/10 07:00:24;;;;;;;7.50;3.08;;;20.00;85.70;;;;;;5067221;28;20048;-77
2023/07/10 07:02:50;;;;;;;8.50;3.20;;;20.10;85.00;;;;;;5066155;28;20052;-78
2023/07/10 07:05:15;;;;;;;11.70;3.75;;;20.10;85.30;;;;;;5017395;28;20048;-80
2023/07/10 07:07:41;;;;;;;6.93;2.80;;;20.20;85.50;;;;;;5050334;28;20608;-79
2023/07/10 07:10:14;;;;;;;8.40;3.40;;;20.30;85.70;;;;;;5050290;28;20052;-77
2023/07/10 07:12:42;;;;;;;9.73;3.35;;;20.30;85.10;;;;;;5066178;28;20048;-79
2023/07/10 07:15:09;;;;;;;11.02;2.88;;;20.40;84.90;;;;;;5066647;28;20036;-78
2023/07/10 07:17:35;;;;;;;9.80;3.55;;;20.40;85.00;;;;;;5051926;28;20435;-77
2023/07/10 07:20:00;;;;;;;11.27;3.72;;;20.50;84.60;;;;;;5052078;28;20036;-79
2023/07/10 07:22:26;;;;;;;13.52;3.92;;;20.50;85.10;;;;;;5050365;28;20462;-78
2023/07/10 07:24:52;;;;;;;7.15;2.97;;;20.50;84.60;;;;;;5048545;28;20088;-80
2023/07/10 07:27:18;;;;;;;11.27;4.35;;;20.60;84.30;;;;;;5067019;28;20049;-77
2023/07/10 07:29:44;;;;;;;11.88;4.50;;;20.50;84.30;;;;;;5066612;28;20056;-78
2023/07/10 07:32:10;;;;;;;7.85;3.50;;;20.60;84.60;;;;;;5066557;28;20127;-79
2023/07/10 07:34:36;;;;;;;10.07;3.75;;;20.60;84.50;;;;;;5064853;28;20040;-78
2023/07/10 07:37:04;;;;;;;16.17;4.60;;;20.60;84.60;;;;;;5066872;28;20044;-79
2023/07/10 07:39:31;;;;;;;14.63;4.10;;;20.60;83.80;;;;;;5051916;28;20041;-77
2023/07/10 07:41:58;;;;;;;14.50;4.35;;;20.70;83.40;;;;;;5050773;28;20158;-79
2023/07/10 07:44:24;;;;;;;12.60;3.97;;;20.70;83.90;;;;;;5048517;28;20044;-79
2023/07/10 07:46:50;;;;;;;12.60;4.28;;;20.70;83.90;;;;;;5050772;28;20527;-77
2023/07/10 07:49:16;;;;;;;12.75;4.80;;;20.60;83.70;;;;;;5050929;28;20048;-78
2023/07/10 07:51:43;;;;;;;16.15;5.05;;;20.70;83.60;;;;;;5051365;28;20598;-80
2023/07/10 07:54:12;;;;;;;8.63;3.42;;;20.70;83.70;;;;;;5044813;28;20052;-78
2023/07/10 07:56:37;;;;;;;9.75;3.20;;;20.90;83.50;;;;;;5050595;28;20040;-77
2023/07/10 07:59:03;;;;;;;8.25;3.35;;;20.90;82.40;;;;;;5050846;28;20045;-77
2023/07/10 08:01:29;;;;;;;12.63;4.40;;;20.90;82.20;;;;;;5071541;28;20043;-79
2023/07/10 08:03:56;;;;;;;12.23;4.55;;;21.00;82.20;;;;;;5042227;28;20154;-77
2023/07/10 08:06:26;;;;;;;11.40;4.65;;;21.10;82.50;;;;;;5055354;28;20056;-78
2023/07/10 08:08:51;;;;;;;10.15;4.63;;;21.20;82.50;;;;;;5040374;28;20511;-79
2023/07/10 08:11:17;;;;;;;12.98;4.20;;;21.30;81.90;;;;;;5037887;28;20041;-78
2023/07/10 08:13:43;;;;;;;13.27;4.60;;;21.40;81.90;;;;;;5055288;28;20037;-80
2023/07/10 08:16:09;;;;;;;20.35;5.68;;;21.50;81.70;;;;;;5073203;28;20382;-79
2023/07/10 08:18:35;;;;;;;18.45;4.35;;;21.60;81.70;;;;;;5073771;28;20048;-79
2023/07/10 08:21:05;;;;;;;10.68;4.60;;;21.70;81.80;;;;;;5073999;28;20071;-77
2023/07/10 08:23:31;;;;;;;14.18;3.50;;;21.70;79.70;;;;;;5073217;28;20050;-77
2023/07/10 08:25:57;;;;;;;13.00;4.30;;;21.70;80.30;;;;;;5055757;28;20147;-80
2023/07/10 08:28:23;;;;;;;11.38;3.92;;;21.70;80.10;;;;;;5056735;28;20126;-78
2023/07/10 08:30:48;;;;;;;12.20;3.90;;;21.80;79.90;;;;;;5072981;28;20047;-81
2023/07/10 08:33:14;;;;;;;9.38;3.88;;;21.90;79.40;;;;;;5036897;28;20119;-80
2023/07/10 08:35:40;;;;;;;8.27;3.50;;;21.90;78.80;;;;;;5053759;28;20109;-79
2023/07/10 08:38:06;;;;;;;8.73;4.07;;;22.00;78.80;;;;;;5071794;28;20041;-79
2023/07/10 08:40:34;;;;;;;13.45;4.80;;;21.90;78.40;;;;;;5036150;28;20050;-79
2023/07/10 08:43:17;;;;;;;17.08;4.15;;;22.00;79.10;;;;;;5052689;28;20128;-78
2023/07/10 08:45:46;;;;;;;14.00;5.07;;;21.90;79.40;;;;;;5053349;28;20044;-78
2023/07/10 08:48:28;;;;;;;12.30;4.63;;;21.90;79.50;;;;;;5065375;28;20061;-81
2023/07/10 08:51:01;;;;;;;13.38;4.07;;;21.90;79.60;;;;;;5071119;28;20124;-81
2023/07/10 08:53:31;;;;;;;11.98;3.97;;;21.90;79.20;;;;;;5053602;28;20040;-77
2023/07/10 08:56:27;;;;;;;9.75;3.40;;;22.00;79.10;;;;;;5070058;28;20044;-77
2023/07/10 08:58:59;;;;;;;12.23;3.85;;;22.00;77.20;;;;;;5070556;28;20040;-81
2023/07/10 09:01:39;;;;;;;14.18;4.20;;;22.20;78.00;;;;;;5071135;28;20110;-81
2023/07/10 09:04:08;;;;;;;12.35;4.70;;;22.20;77.20;;;;;;5052736;28;20044;-79
2023/07/10 09:06:45;;;;;;;8.13;3.78;;;22.20;77.00;;;;;;5064576;28;20048;-78
2023/07/10 09:09:41;;;;;;;9.90;3.67;;;22.20;76.90;;;;;;5070134;28;20408;-77
2023/07/10 09:12:21;;;;;;;11.50;4.35;;;22.30;75.70;;;;;;5069455;28;20365;-78
2023/07/10 09:15:01;;;;;;;10.68;3.80;;;22.30;76.20;;;;;;5051424;28;20036;-79
2023/07/10 09:17:40;;;;;;;13.32;4.30;;;22.30;76.60;;;;;;5052337;28;20484;-82
2023/07/10 09:20:10;;;;;;;9.85;4.03;;;22.40;76.30;;;;;;5069549;28;20051;-80
2023/07/10 09:22:38;;;;;;;10.68;4.20;;;22.50;76.30;;;;;;5069176;28;20048;-78
2023/07/10 09:25:14;;;;;;;11.50;3.95;;;22.60;75.60;;;;;;5069353;28;20057;-81
2023/07/10 09:27:46;;;;;;;8.35;3.67;;;22.70;75.60;;;;;;5066532;28;20173;-82
2023/07/10 09:30:37;;;;;;;8.02;4.35;;;22.80;74.50;;;;;;5052678;28;20119;-78
2023/07/10 09:33:05;;;;;;;14.00;4.70;;;23.00;75.00;;;;;;5068663;28;20046;-81
2023/07/10 09:35:34;;;;;;;12.30;4.38;;;23.00;74.60;;;;;;5068820;28;20041;-79
2023/07/10 09:38:01;;;;;;;11.30;3.50;;;23.20;74.50;;;;;;5051192;28;20472;-80
2023/07/10 09:40:45;;;;;;;13.43;4.10;;;23.10;74.00;;;;;;5053808;28;20083;-79
2023/07/10 09:43:15;;;;;;;;;;;22.90;74.20;;;;;;5068011;28;20508;-79
2023/07/10 09:45:44;;;;;;;12.07;3.92;;;22.80;74.40;;;;;;5070951;28;19920;-80
2023/07/10 09:48:26;;;;;;;11.20;4.15;;;22.80;74.90;;;;;;5070402;28;20051;-80
2023/07/10 09:50:53;;;;;;;11.25;4.40;;;23.00;74.50;;;;;;5070965;28;20116;-81
2023/07/10 09:53:34;;;;;;;11.77;3.53;;;23.10;74.80;;;;;;5053603;28;20040;-81
2023/07/10 09:56:00;;;;;;;9.00;3.10;;;23.20;74.30;;;;;;5049423;28;20533;-80
2023/07/10 09:58:26;;;;;;;9.05;3.65;;;23.40;72.80;;;;;;5053594;28;20047;-80
2023/07/10 10:00:52;;;;;;;14.38;3.83;;;23.50;71.50;;;;;;5070031;28;20119;-80
2023/07/10 10:03:25;;;;;;;9.45;3.90;;;23.50;71.00;;;;;;5070178;28;20041;-81
2023/07/10 10:05:56;;;;;;;9.07;3.60;;;23.50;71.70;;;;;;5071451;28;20067;-81
2023/07/10 10:08:28;;;;;;;11.73;3.60;;;23.70;71.40;;;;;;5056331;28;20071;-80
2023/07/10 10:11:09;;;;;;;12.02;4.07;;;23.70;71.20;;;;;;5058196;28;20051;-80
2023/07/10 10:13:56;;;;;;;8.82;3.20;;;23.70;71.70;;;;;;5058055;28;20086;-82
2023/07/10 10:16:22;;;;;;;7.35;3.60;;;23.80;70.80;;;;;;5068811;28;20051;-79
2023/07/10 10:19:18;;;;;;;8.82;3.55;;;23.80;70.10;;;;;;5074982;28;20040;-79
2023/07/10 10:21:44;;;;;;;10.48;3.65;;;23.80;69.60;;;;;;5074754;28;20116;-81
2023/07/10 10:24:11;;;;;;;9.88;3.53;;;23.80;69.50;;;;;;5056624;28;20591;-80
2023/07/10 10:26:50;;;;;;;12.05;3.72;;;23.80;69.50;;;;;;5052106;28;20036;-80
2023/07/10 10:29:22;;;;;;;9.25;3.67;;;23.90;69.50;;;;;;5070965;28;20387;-79
2023/07/10 10:32:00;;;;;;;6.85;2.65;;;24.10;68.50;;;;;;5067971;28;20037;-81
2023/07/10 10:34:44;;;;;;;8.57;3.05;;;24.00;67.10;;;;;;5039042;28;20485;-78
2023/07/10 10:37:16;;;;;;;;;;;24.00;67.30;;;;;;5040005;28;20136;-80
2023/07/10 10:40:08;;;;;;;9.73;3.55;;;24.00;66.30;;;;;;5056663;28;20327;-79
2023/07/10 10:42:46;;;;;;;7.18;2.85;;;24.10;66.50;;;;;;5042077;28;20041;-80
2023/07/10 10:45:20;;;;;;;5.63;2.42;;;24.20;66.90;;;;;;5038364;28;20175;-78
2023/07/10 10:48:02;;;;;;;;;;;24.40;66.20;;;;;;5064186;28;20056;-80
2023/07/10 10:50:47;;;;;;;9.52;2.90;;;24.50;66.50;;;;;;5064008;28;19920;-79
2023/07/10 10:53:39;;;;;;;9.15;3.30;;;24.70;66.30;;;;;;5037634;28;20055;-81
2023/07/10 10:56:20;;;;;;;7.30;2.28;;;24.90;65.90;;;;;;5046541;28;20067;-79
2023/07/10 10:59:10;;;;;;;8.77;2.53;;;24.90;64.50;;;;;;5065500;28;20072;-80
2023/07/10 11:01:53;;;;;;;4.90;2.20;;;24.70;63.90;;;;;;5065414;28;20055;-81
2023/07/10 11:04:27;;;;;;;9.90;2.75;;;24.50;63.40;;;;;;5064381;28;20120;-81
2023/07/10 11:07:04;;;;;;;6.45;1.95;;;24.30;63.90;;;;;;5068946;28;20040;-82
2023/07/10 11:09:36;;;;;;;5.65;2.42;;;24.30;64.00;;;;;;5057651;28;20041;-81
2023/07/10 11:12:03;;;;;;;9.80;2.58;;;23.90;64.20;;;;;;5074536;28;20145;-80
2023/07/10 11:14:29;;;;;;;6.43;2.38;;;23.80;64.10;;;;;;5074462;28;20037;-78
2023/07/10 11:16:56;;;;;;;5.28;2.05;;;23.90;64.50;;;;;;5057829;28;20039;-81
2023/07/10 11:19:31;;;;;;;5.07;2.00;;;23.90;64.20;;;;;;5061227;28;21025;-79
2023/07/10 11:22:20;;;;;;;6.10;2.92;;;24.00;63.60;;;;;;5066421;28;20401;-79
2023/07/10 11:24:52;;;;;;;6.97;2.65;;;23.90;63.50;;;;;;5069000;28;20088;-80
2023/07/10 11:27:36;;;;;;;6.22;2.28;;;24.10;64.00;;;;;;5070267;28;20484;-80
2023/07/10 11:30:11;;;;;;;8.38;2.63;;;24.40;63.10;;;;;;5052896;28;20049;-80
2023/07/10 11:33:04;;;;;;;6.63;2.47;;;24.40;62.70;;;;;;5054107;28;20055;-82
2023/07/10 11:35:31;;;;;;;7.63;2.40;;;24.40;62.30;;;;;;5037654;28;20059;-80
2023/07/10 11:38:14;;;;;;;5.82;2.15;;;24.60;61.80;;;;;;5037526;28;20037;-80
2023/07/10 11:40:42;;;;;;;10.60;3.40;;;24.60;61.80;;;;;;5065459;28;20052;-82
2023/07/10 11:43:26;;;;;;;10.20;2.20;;;24.70;62.70;;;;;;5057197;28;20102;-81
2023/07/10 11:46:01;;;;;;;9.05;2.35;;;24.70;63.00;;;;;;5073640;28;20047;-80
2023/07/10 11:48:42;;;;;;;8.10;2.13;;;24.70;62.60;;;;;;5073676;28;20044;-81
2023/07/10 11:51:34;;;;;;;8.48;2.15;;;24.60;60.70;;;;;;5056837;28;20048;-80
2023/07/10 11:54:12;;;;;;;7.68;2.38;;;24.50;60.40;;;;;;5056880;28;20067;-80
2023/07/10 11:56:38;;;;;;;5.22;1.50;;;24.70;60.10;;;;;;5061068;28;20136;-80
2023/07/10 11:59:22;;;;;;;4.40;1.35;;;24.90;59.20;;;;;;5060026;28;20119;-81
2023/07/10 12:01:47;;;;;;;;;;;25.00;55.60;;;;;;5056254;28;20036;-81
2023/07/10 12:04:15;;;;;;;3.88;1.13;;;24.90;52.20;;;;;;5073227;28;20027;-80
2023/07/10 12:06:45;;;;;;;4.20;1.25;;;24.80;50.30;;;;;;5073342;28;20123;-81
2023/07/10 12:09:11;;;;;;;5.25;1.27;;;24.80;48.10;;;;;;5073399;28;20393;-81
2023/07/10 12:11:38;;;;;;;2.92;1.15;;;24.90;49.40;;;;;;5073034;28;20037;-81
2023/07/10 12:14:11;;;;;;;3.60;1.30;;;25.00;48.80;;;;;;5040053;28;20036;-81
2023/07/10 12:16:54;;;;;;;4.43;1.07;;;25.20;49.40;;;;;;5066906;28;20041;-81
2023/07/10 12:19:26;;;;;;;5.30;1.27;;;25.30;51.00;;;;;;5053488;28;20448;-81
2023/07/10 12:21:51;;;;;;;6.53;1.63;;;25.40;51.50;;;;;;5053129;28;20036;-81
2023/07/10 12:24:19;;;;;;;6.05;1.50;;;25.50;49.80;;;;;;5036361;28;20401;-81
2023/07/10 12:26:53;;;;;;;6.45;1.90;;;25.60;51.00;;;;;;5036612;28;20041;-82
2023/07/10 12:29:19;;;;;;;5.35;1.40;;;25.70;50.60;;;;;;5036778;28;20083;-81
2023/07/10 12:31:46;;;;;;;5.57;2.08;;;25.90;50.00;;;;;;5056094;28;20040;-81
2023/07/10 12:34:20;;;;;;;6.53;2.15;;;25.90;50.60;;;;;;5052047;28;20036;-82
2023/07/10 12:36:49;;;;;;;6.15;1.80;;;25.70;51.30;;;;;;5040701;28;20045;-80
2023/07/10 12:39:15;;;;;;;6.25;1.30;;;25.80;50.90;;;;;;5020260;28;20037;-80
2023/07/10 12:41:46;;;;;;;5.10;1.58;;;25.70;50.70;;;;;;5019786;28;20401;-82
2023/07/10 12:44:19;;;;;;;5.40;1.63;;;25.80;51.40;;;;;;5036409;28;20048;-82
2023/07/10 12:46:45;;;;;;;4.50;1.40;;;25.80;47.10;;;;;;5036240;28;20052;-82
2023/07/10 12:49:14;;;;;;;4.55;1.50;;;25.70;47.80;;;;;;5036042;28;20040;-82
2023/07/10 12:51:45;;;;;;;4.93;1.40;;;25.70;48.30;;;;;;5052865;28;20045;-81
2023/07/10 12:54:21;;;;;;;4.43;1.42;;;25.60;48.20;;;;;;5065698;28;20040;-81